首页
METAR-TAF:

METAR-TAF

机场 :

Capo Bellavista

Tortolì, 意大利

纬度: 39-56N, 经度: 009-43E, 海拔: 138米

当前天气观测

该预报发布于56分钟前的06:55 UTC
风速2节,风向西北
温度 10°C
湿度 87%
气压 1010 hPa
能见度10公里或以上
少量云层高于2500英尺
多云层高于3000英尺

METAR: LIEB 030655Z 32002KT 9999 FEW025 BKN030 10/08 Q1010 RMK OVC QUK 1 QUL 0 VIS MAR 25 KM MON W CIME INC NC VIS MIN 9999

时间: 09:51 (07:51 UTC)


TAF: 丢失

超过4000个机场的气象观测和天气预报(METAR&TAF报告)。

可查询的气象台以黄色和红色小点在地图上表示。

将鼠标移到小点上方,可查看气象台名称。

然后点击查看天气观测和预报。

如需切换地图:点击带黑十字的绿色按钮放大地图;点击带横线的绿色按钮缩小地图;或者点击绿色箭头查看邻近地区的地图。


METAR-TAF: